Portada
METAR-TAF:

METAR-TAF

Aeropuertos :

Glencoe Municipal Airport (Vernon Perschau Field)

Glencoe, Minnesota, Estados Unidos

latitud: 44-45-22N, longitud: 094-04-52W, altitud: 302 m

Observación

El informe se hizo hace 14 minutos, a las 01:55 UTC
Viento 12 kt del noroeste con ráfagas de 19 kt
Temperatura 18°C
Humedad 28%
Presión 1015 hPa
Visibilidad: 16.1 km
Cielo despejado

METAR: KGYL 290155Z AUTO 31012G19KT 10SM CLR 18/M01 A2997 RMK AO2 T01831007

Hora: 21:09 (02:09 UTC)


TAF: falta

Observaciones y pronósticos meteorológicos de más de 4000 aeropuertos (mensajes METAR y TAF).

Los puntos amarillos y rojos representan las estaciones disponibles.

Ponga el ratón en el punto deseado para ver el nombre de la estación.

Haga clic para ver las observaciones y los pronósticos meteorológicos.

Para cambiar el mapa : haga clic en los botones verdes con una cruz de color negro para hacer un zoom, en el botón verde con un guión para alejar o en las flechas verdes para mapas adyacentes.


METAR-TAF: